Time;durP1;ratioP1;P1;durP2;ratioP2;P2;SDS_P1;SDS_P2;PMS_P1;PMS_P2;Temp;Humidity;BMP_temperature;BMP_pressure;BME280_temperature;BME280_humidity;BME280_pressure;Samples;Min_cycle;Max_cycle;Signal;HPM_P1;HPM_P2
2023/06/26 00:01:51;;;;;;;5.30;4.70;;;;;;;15.23;64.69;100159.04;131176;1253;108108;-80
2023/06/26 00:04:56;;;;;;;5.70;4.70;;;;;;;15.22;64.62;100159.52;131091;1251;107521;-80
2023/06/26 00:08:02;;;;;;;4.60;4.10;;;;;;;15.17;64.65;100157.30;131216;1253;107470;-80
2023/06/26 00:11:07;;;;;;;6.00;4.40;;;;;;;15.11;64.85;100160.55;131299;1253;107286;-80
2023/06/26 00:14:13;;;;;;;4.70;4.10;;;;;;;15.05;65.02;100162.66;131276;1251;107708;-80
2023/06/26 00:17:19;;;;;;;4.10;3.60;;;;;;;15.02;64.94;100158.77;131086;1265;107378;-81
2023/06/26 00:20:25;;;;;;;5.10;4.40;;;;;;;15.02;65.15;100160.19;131147;1253;107530;-81
2023/06/26 00:23:32;;;;;;;5.20;4.20;;;;;;;15.04;65.20;100160.66;131173;1253;107514;-81
2023/06/26 00:26:38;;;;;;;5.60;4.50;;;;;;;15.03;65.29;100158.27;131088;1251;107245;-81
2023/06/26 00:29:43;;;;;;;5.50;4.60;;;;;;;15.02;65.17;100159.85;131099;1251;107620;-82
2023/06/26 00:32:49;;;;;;;5.50;4.40;;;;;;;14.99;65.35;100161.09;131186;1253;107385;-80
2023/06/26 00:40:29;;;;;;;5.00;4.40;;;;;;;14.93;65.53;100154.84;131118;1253;107518;-80
2023/06/26 00:43:35;;;;;;;5.20;4.10;;;;;;;14.90;65.55;100155.13;131132;1250;107595;-80
2023/06/26 00:46:41;;;;;;;7.70;4.90;;;;;;;14.87;65.72;100157.68;131206;1253;107426;-80
2023/06/26 00:49:47;;;;;;;5.50;4.40;;;;;;;14.84;65.84;100160.16;131081;1261;107445;-79
2023/06/26 00:52:54;;;;;;;6.10;4.70;;;;;;;14.80;65.83;100157.09;131124;1251;107510;-79
2023/06/26 00:56:03;;;;;;;5.50;4.50;;;;;;;14.73;65.86;100151.23;131074;1251;106396;-81
2023/06/26 00:59:09;;;;;;;6.60;4.00;;;;;;;14.68;65.96;100148.97;131160;1257;107222;-82
2023/06/26 01:02:17;;;;;;;4.30;3.90;;;;;;;14.64;66.15;100144.85;131382;1253;107507;-79
2023/06/26 01:05:23;;;;;;;5.00;4.50;;;;;;;14.65;66.21;100142.22;131093;1253;107506;-79
2023/06/26 01:08:30;;;;;;;6.20;4.20;;;;;;;14.68;66.26;100143.67;131106;1249;107491;-79
2023/06/26 01:11:35;;;;;;;5.80;4.60;;;;;;;14.67;66.28;100141.93;131451;1253;107348;-79
2023/06/26 01:14:41;;;;;;;6.10;4.80;;;;;;;14.66;66.22;100139.63;131259;1253;107520;-80
2023/06/26 01:17:47;;;;;;;5.50;4.50;;;;;;;14.62;66.40;100135.77;131168;1253;107462;-79
2023/06/26 01:20:54;;;;;;;5.10;4.20;;;;;;;14.59;66.38;100133.79;131207;1257;107225;-79
2023/06/26 01:24:09;;;;;;;6.40;4.90;;;;;;;14.57;66.40;100132.01;131051;1255;107453;-79
2023/06/26 01:27:15;;;;;;;5.60;4.40;;;;;;;14.53;66.44;100126.95;131059;1256;107636;-80
2023/06/26 01:30:23;;;;;;;5.90;4.70;;;;;;;14.49;66.58;100126.33;131026;1261;108630;-79
2023/06/26 01:33:31;;;;;;;4.90;4.40;;;;;;;14.46;66.63;100127.94;131076;1255;107455;-80
2023/06/26 01:36:37;;;;;;;5.70;5.10;;;;;;;14.41;66.67;100123.11;131000;1256;107234;-79
2023/06/26 01:39:44;;;;;;;5.90;4.20;;;;;;;14.35;66.75;100123.86;131094;1253;107389;-81
2023/06/26 01:42:51;;;;;;;5.30;4.20;;;;;;;14.31;66.81;100118.96;131026;1254;107520;-78
2023/06/26 01:46:03;;;;;;;4.70;4.10;;;;;;;14.31;66.73;100116.11;131046;1257;106510;-79
2023/06/26 01:49:18;;;;;;;5.30;4.50;;;;;;;14.32;66.74;100112.92;131016;1257;107237;-79
2023/06/26 01:52:29;;;;;;;5.00;4.30;;;;;;;14.34;66.96;100113.10;131116;1253;106530;-79
2023/06/26 01:55:41;;;;;;;7.10;4.50;;;;;;;14.32;66.78;100108.83;131114;1253;107493;-80
2023/06/26 01:58:49;;;;;;;7.10;4.50;;;;;;;14.28;66.93;100110.16;131065;1251;107526;-80
2023/06/26 02:01:54;;;;;;;5.50;4.30;;;;;;;14.26;66.93;100111.85;131081;1251;107245;-80
2023/06/26 02:05:00;;;;;;;5.20;4.50;;;;;;;14.22;66.95;100113.77;131093;1253;107515;-79
2023/06/26 02:08:07;;;;;;;6.60;4.60;;;;;;;14.17;66.88;100110.40;131153;1253;141381;-80
2023/06/26 02:11:12;;;;;;;5.70;4.30;;;;;;;14.12;67.15;100109.19;131058;1258;107221;-79
2023/06/26 02:14:19;;;;;;;5.80;4.50;;;;;;;14.09;67.31;100108.85;131072;1263;107606;-79
2023/06/26 02:17:25;;;;;;;6.70;4.40;;;;;;;14.06;67.15;100110.61;131150;1254;107585;-79
2023/06/26 02:20:33;;;;;;;6.40;4.40;;;;;;;14.02;67.36;100113.10;131384;1263;107429;-79
2023/06/26 02:23:39;;;;;;;7.20;4.00;;;;;;;13.98;67.47;100106.24;131058;1251;107361;-79
2023/06/26 02:26:45;;;;;;;4.30;3.90;;;;;;;13.96;67.60;100110.35;131055;1253;107446;-79
2023/06/26 02:29:51;;;;;;;6.10;4.10;;;;;;;13.97;67.63;100108.09;131017;1254;107316;-79
2023/06/26 02:32:56;;;;;;;5.40;4.30;;;;;;;13.97;67.76;100107.06;131183;1251;109356;-83
2023/06/26 02:36:02;;;;;;;5.90;3.70;;;;;;;13.97;67.65;100104.13;131000;1253;107206;-85
2023/06/26 02:39:08;;;;;;;4.50;4.00;;;;;;;13.97;67.63;100105.58;131187;1253;107485;-81
2023/06/26 02:42:14;;;;;;;6.10;4.20;;;;;;;14.01;67.60;100102.97;131162;1255;107457;-78
2023/06/26 02:45:20;;;;;;;4.90;4.20;;;;;;;14.01;67.74;100104.28;131238;1254;107495;-80
2023/06/26 02:48:26;;;;;;;4.80;4.20;;;;;;;14.01;67.73;100107.14;131332;1253;107545;-79
2023/06/26 02:51:32;;;;;;;4.70;4.20;;;;;;;14.01;67.84;100104.45;131185;1253;107525;-79
2023/06/26 02:54:39;;;;;;;6.20;4.40;;;;;;;14.00;67.83;100106.27;131148;1251;107552;-80
2023/06/26 02:57:45;;;;;;;4.70;4.10;;;;;;;13.97;67.99;100107.96;131109;1260;107502;-80
2023/06/26 03:00:51;;;;;;;6.70;4.60;;;;;;;13.97;68.02;100111.55;131183;1256;107257;-80
2023/06/26 03:03:57;;;;;;;4.80;4.30;;;;;;;13.98;68.01;100108.89;131162;1256;107549;-80
2023/06/26 03:07:03;;;;;;;4.90;3.80;;;;;;;14.00;68.17;100109.23;130984;1254;107450;-80
2023/06/26 03:10:10;;;;;;;4.60;3.70;;;;;;;14.03;68.20;100105.43;131040;1254;107387;-80
2023/06/26 03:13:16;;;;;;;4.80;3.90;;;;;;;14.10;68.20;100103.74;131163;1253;107760;-80
2023/06/26 03:16:22;;;;;;;5.50;4.20;;;;;;;14.22;68.52;100106.76;131344;1254;107484;-79
2023/06/26 03:19:27;;;;;;;7.00;4.20;;;;;;;14.41;68.17;100108.11;130997;1256;106287;-80
2023/06/26 03:22:51;;;;;;;4.70;3.90;;;;;;;14.68;68.20;100110.75;131226;1249;107447;-80
2023/06/26 03:25:57;;;;;;;4.30;3.90;;;;;;;14.99;68.32;100104.48;131445;1253;107488;-80
2023/06/26 03:29:05;;;;;;;4.70;3.90;;;;;;;15.31;68.07;100103.75;131446;1261;107501;-80
2023/06/26 03:32:11;;;;;;;5.10;4.20;;;;;;;15.65;67.98;100095.17;131369;1251;107261;-80
2023/06/26 03:35:18;;;;;;;5.30;4.00;;;;;;;15.98;67.71;100098.60;131320;1253;107499;-80
2023/06/26 03:38:25;;;;;;;3.80;3.40;;;;;;;16.32;67.65;100102.64;131267;1251;106546;-81
2023/06/26 03:41:32;;;;;;;4.60;4.00;;;;;;;16.68;67.49;100103.27;131179;1255;107465;-81
2023/06/26 03:44:37;;;;;;;4.90;3.90;;;;;;;17.05;67.36;100099.59;131194;1253;107580;-80
2023/06/26 03:47:46;;;;;;;4.80;4.00;;;;;;;17.41;67.11;100101.97;131433;1253;107496;-80
2023/06/26 03:50:53;;;;;;;4.50;4.00;;;;;;;17.68;66.69;100100.02;131296;1263;107052;-80
2023/06/26 03:53:59;;;;;;;4.20;3.80;;;;;;;17.91;66.78;100098.89;131416;1263;106616;-80
2023/06/26 03:57:07;;;;;;;4.50;3.70;;;;;;;18.16;66.65;100096.52;131171;1262;108978;-80
2023/06/26 04:00:15;;;;;;;5.00;3.90;;;;;;;18.36;66.59;100091.26;131119;1257;109230;-81
2023/06/26 04:03:20;;;;;;;4.30;3.90;;;;;;;18.64;66.41;100098.30;131252;1254;107551;-80
2023/06/26 04:06:27;;;;;;;4.20;3.80;;;;;;;18.81;66.44;100100.12;131209;1254;107509;-81
2023/06/26 04:09:33;;;;;;;3.80;3.50;;;;;;;18.99;66.39;100098.82;131102;1263;107417;-80
2023/06/26 04:12:41;;;;;;;4.40;4.00;;;;;;;19.21;66.38;100094.84;131153;1254;107565;-80
2023/06/26 04:15:47;;;;;;;4.30;3.90;;;;;;;19.39;66.35;100097.21;131081;1253;107124;-81
2023/06/26 04:18:55;;;;;;;4.20;3.60;;;;;;;19.56;66.39;100101.09;131162;1254;107501;-81
2023/06/26 04:22:01;;;;;;;4.60;4.00;;;;;;;19.78;66.33;100101.83;131199;1254;107603;-80
2023/06/26 04:25:07;;;;;;;4.20;3.80;;;;;;;20.00;66.17;100096.08;131403;1260;107582;-81
2023/06/26 04:28:14;;;;;;;4.80;4.20;;;;;;;20.19;66.30;100090.21;131297;1254;107298;-80
2023/06/26 04:31:20;;;;;;;5.70;4.50;;;;;;;20.37;66.31;100093.23;131097;1263;107479;-81
2023/06/26 04:34:25;;;;;;;4.90;3.80;;;;;;;20.58;66.37;100090.10;131331;1263;107994;-81
2023/06/26 04:37:31;;;;;;;4.60;4.10;;;;;;;20.75;66.24;100091.70;131256;1257;108118;-81
2023/06/26 04:40:36;;;;;;;5.30;3.80;;;;;;;20.91;66.33;100089.20;131352;1254;107477;-80
2023/06/26 04:43:42;;;;;;;6.30;5.70;;;;;;;21.06;66.32;100088.63;131237;1254;107408;-80
2023/06/26 04:46:47;;;;;;;7.60;6.20;;;;;;;21.20;66.42;100088.13;131143;1254;107549;-81
2023/06/26 04:49:53;;;;;;;6.00;5.40;;;;;;;21.35;66.42;100085.39;131125;1260;106224;-80
2023/06/26 04:52:59;;;;;;;6.00;5.40;;;;;;;21.51;65.92;100085.52;131089;1259;107531;-80
2023/06/26 04:56:04;;;;;;;6.40;5.70;;;;;;;21.62;65.24;100086.08;131131;1254;107554;-81
2023/06/26 04:59:13;;;;;;;5.20;4.70;;;;;;;21.71;65.48;100081.27;131306;1263;107530;-80
2023/06/26 05:02:18;;;;;;;6.50;5.60;;;;;;;21.87;65.35;100081.50;131218;1263;107335;-81
2023/06/26 05:05:24;;;;;;;7.10;5.60;;;;;;;22.03;64.88;100082.80;131222;1261;107524;-80
2023/06/26 05:08:29;;;;;;;6.20;5.40;;;;;;;22.13;64.61;100080.48;131277;1263;107522;-80
2023/06/26 05:11:35;;;;;;;6.50;5.10;;;;;;;22.27;64.60;100080.39;131143;1251;107453;-80
2023/06/26 05:14:40;;;;;;;6.60;5.10;;;;;;;22.41;64.42;100081.44;131154;1251;107210;-80
2023/06/26 05:17:47;;;;;;;5.40;4.80;;;;;;;22.54;64.27;100081.74;131380;1263;107491;-80
2023/06/26 05:20:54;;;;;;;6.50;5.60;;;;;;;22.66;63.94;100085.45;131358;1256;106757;-80
2023/06/26 05:24:00;;;;;;;6.60;5.70;;;;;;;22.77;63.41;100082.75;131221;1263;107522;-80
2023/06/26 05:27:08;;;;;;;5.70;4.80;;;;;;;22.80;63.10;100086.46;131108;1254;107565;-81
2023/06/26 05:30:16;;;;;;;5.60;5.00;;;;;;;22.88;63.22;100085.77;131060;1257;107161;-80
2023/06/26 05:33:25;;;;;;;6.50;5.10;;;;;;;23.00;63.21;100087.21;131151;1257;107549;-80
2023/06/26 05:36:32;;;;;;;5.80;5.00;;;;;;;23.02;62.50;100087.35;131400;1256;108129;-81
2023/06/26 05:39:39;;;;;;;5.80;5.10;;;;;;;23.08;62.91;100083.31;131210;1254;107470;-80
2023/06/26 05:42:45;;;;;;;6.50;5.80;;;;;;;23.19;62.49;100084.87;131328;1254;108217;-81
2023/06/26 05:45:51;;;;;;;6.50;5.70;;;;;;;23.16;61.29;100084.28;131305;1263;107613;-80
2023/06/26 05:48:57;;;;;;;6.60;5.90;;;;;;;23.19;62.34;100087.70;131461;1254;107343;-80
2023/06/26 05:52:03;;;;;;;5.80;5.10;;;;;;;23.30;62.09;100086.26;131257;1254;107454;-80
2023/06/26 05:55:11;;;;;;;7.10;6.10;;;;;;;23.46;61.56;100081.35;131035;1254;107401;-81
2023/06/26 05:58:18;;;;;;;7.20;5.60;;;;;;;23.47;58.89;100078.32;131166;1254;107344;-81
2023/06/26 06:01:24;;;;;;;5.60;5.10;;;;;;;23.40;60.00;100077.52;131065;1254;107438;-80
2023/06/26 06:04:29;;;;;;;6.00;5.50;;;;;;;23.37;60.36;100078.17;131260;1254;107549;-80
2023/06/26 06:07:36;;;;;;;7.70;5.80;;;;;;;23.45;60.61;100077.41;131017;1255;107526;-80
2023/06/26 06:10:41;;;;;;;7.10;6.40;;;;;;;23.47;59.52;100076.02;131218;1264;106717;-80
2023/06/26 06:13:47;;;;;;;6.60;5.90;;;;;;;23.48;60.63;100076.32;131092;1256;106551;-80
2023/06/26 06:16:56;;;;;;;6.90;6.20;;;;;;;23.58;60.59;100077.20;131218;1257;105684;-80
2023/06/26 06:20:01;;;;;;;7.90;5.60;;;;;;;23.62;58.95;100077.89;130952;1264;107660;-80
2023/06/26 06:23:07;;;;;;;7.80;6.00;;;;;;;23.60;59.58;100075.89;130974;1256;108713;-80
2023/06/26 06:26:13;;;;;;;6.20;5.60;;;;;;;23.61;59.64;100071.77;131173;1259;107373;-80
2023/06/26 06:29:19;;;;;;;8.30;5.90;;;;;;;23.69;59.68;100069.25;131134;1257;107413;-80
2023/06/26 06:32:25;;;;;;;6.40;5.70;;;;;;;23.88;59.63;100069.34;131029;1256;107520;-80
2023/06/26 06:35:30;;;;;;;7.20;5.90;;;;;;;24.07;59.12;100063.67;130945;1256;106944;-80
2023/06/26 06:38:36;;;;;;;9.00;6.20;;;;;;;24.10;59.04;100063.30;130926;1257;107571;-80
2023/06/26 06:41:41;;;;;;;6.20;5.60;;;;;;;24.08;58.87;100061.19;131030;1258;107562;-80
2023/06/26 06:44:47;;;;;;;6.20;5.60;;;;;;;24.09;59.28;100062.57;131020;1258;106493;-80
2023/06/26 06:47:52;;;;;;;7.50;5.70;;;;;;;24.14;58.30;100060.52;131069;1257;107410;-80
2023/06/26 06:50:58;;;;;;;8.30;6.80;;;;;;;24.07;57.15;100063.58;130992;1264;107617;-80
2023/06/26 06:54:04;;;;;;;6.90;6.00;;;;;;;23.95;57.00;100062.66;131007;1257;107472;-80
2023/06/26 06:57:09;;;;;;;8.00;5.90;;;;;;;23.77;56.89;100059.60;131156;1257;108536;-80
2023/06/26 07:00:17;;;;;;;9.10;5.90;;;;;;;23.69;57.20;100057.93;131065;1257;107311;-81
2023/06/26 07:03:22;;;;;;;6.40;5.80;;;;;;;23.70;57.64;100061.63;131130;1258;107525;-80
2023/06/26 07:06:28;;;;;;;7.00;5.70;;;;;;;23.76;57.53;100059.13;131099;1252;107620;-80
2023/06/26 07:09:34;;;;;;;8.40;5.80;;;;;;;23.78;56.71;100058.88;131153;1263;107470;-80
2023/06/26 07:12:40;;;;;;;8.20;5.80;;;;;;;23.74;55.67;100054.73;131349;1251;108647;-80
2023/06/26 07:15:47;;;;;;;7.20;6.00;;;;;;;23.70;57.04;100052.98;131250;1254;107649;-82
2023/06/26 07:18:53;;;;;;;6.90;5.50;;;;;;;23.78;56.54;100052.80;131442;1254;107983;-80
2023/06/26 07:21:59;;;;;;;7.10;5.30;;;;;;;23.83;56.56;100050.79;131197;1257;107225;-80
2023/06/26 07:25:08;;;;;;;7.80;6.30;;;;;;;23.90;56.17;100047.70;131394;1251;107563;-80
2023/06/26 07:28:14;;;;;;;6.50;5.90;;;;;;;23.85;55.59;100049.84;131398;1254;107597;-80
2023/06/26 07:31:20;;;;;;;7.00;6.10;;;;;;;23.84;55.99;100054.68;131341;1254;107339;-80
2023/06/26 07:34:25;;;;;;;8.50;5.90;;;;;;;23.89;56.44;100053.63;131412;1264;105963;-80
2023/06/26 07:37:31;;;;;;;7.40;5.80;;;;;;;24.00;56.87;100050.04;131149;1254;107456;-80
2023/06/26 07:40:37;;;;;;;6.40;5.80;;;;;;;24.07;56.29;100046.99;131178;1254;107478;-80
2023/06/26 07:43:42;;;;;;;6.40;5.60;;;;;;;24.14;56.02;100041.80;131406;1254;107562;-80
2023/06/26 07:46:48;;;;;;;5.60;5.10;;;;;;;24.17;55.78;100045.75;131376;1253;107531;-80
2023/06/26 07:49:53;;;;;;;7.10;5.80;;;;;;;24.25;55.40;100046.52;131400;1253;107560;-80
2023/06/26 07:52:59;;;;;;;6.20;5.60;;;;;;;24.23;54.65;100045.77;131305;1253;107458;-80
2023/06/26 07:56:05;;;;;;;7.10;5.40;;;;;;;24.24;55.42;100043.84;131380;1253;107581;-80
2023/06/26 07:59:10;;;;;;;6.70;5.30;;;;;;;24.34;55.60;100040.55;131414;1255;107231;-80
2023/06/26 08:02:16;;;;;;;5.70;5.10;;;;;;;24.43;55.63;100041.83;131280;1254;106553;-80
2023/06/26 08:05:21;;;;;;;5.90;5.10;;;;;;;24.51;54.71;100038.04;131113;1254;107578;-80
2023/06/26 08:08:27;;;;;;;5.90;5.20;;;;;;;24.53;54.44;100036.05;131066;1251;108638;-80
2023/06/26 08:11:33;;;;;;;5.10;4.60;;;;;;;24.59;52.88;100035.81;131160;1253;107013;-81
2023/06/26 08:14:38;;;;;;;5.00;4.50;;;;;;;24.67;54.08;100031.23;131136;1253;108668;-80
2023/06/26 08:17:45;;;;;;;5.10;4.60;;;;;;;24.76;53.43;100029.77;131225;1255;106495;-80
2023/06/26 08:20:59;;;;;;;5.20;4.70;;;;;;;24.79;50.83;100028.11;131556;1254;107205;-79
2023/06/26 08:24:08;;;;;;;4.80;4.30;;;;;;;24.77;51.53;100026.62;130997;1258;107399;-80
2023/06/26 08:27:14;;;;;;;5.70;4.60;;;;;;;24.85;52.10;100026.23;131133;1251;107281;-80
2023/06/26 08:30:19;;;;;;;5.20;4.70;;;;;;;24.83;49.99;100025.02;131382;1254;107264;-80
2023/06/26 08:33:25;;;;;;;5.90;5.00;;;;;;;24.73;50.20;100024.45;131265;1254;107724;-81
2023/06/26 08:36:33;;;;;;;5.50;4.40;;;;;;;24.62;49.78;100025.77;131211;1250;107637;-81
2023/06/26 08:39:39;;;;;;;4.60;4.00;;;;;;;24.63;50.36;100020.38;131186;1251;107457;-82
2023/06/26 08:42:44;;;;;;;4.20;3.80;;;;;;;24.59;48.25;100027.73;131213;1253;106728;-80
2023/06/26 08:45:51;;;;;;;4.50;4.10;;;;;;;24.44;49.88;100019.00;131210;1254;107509;-80
2023/06/26 08:49:02;;;;;;;4.30;3.90;;;;;;;24.46;50.52;100020.05;131126;1250;108867;-80
2023/06/26 08:52:15;;;;;;;4.70;4.30;;;;;;;24.67;50.58;100015.30;131220;1264;107495;-81
2023/06/26 08:55:23;;;;;;;4.10;3.70;;;;;;;24.88;49.10;100015.80;131194;1254;107384;-81
2023/06/26 08:58:29;;;;;;;4.30;3.80;;;;;;;24.98;47.60;100013.74;131167;1264;107518;-82
2023/06/26 09:01:35;;;;;;;4.20;3.80;;;;;;;24.89;47.31;100020.23;131156;1264;108100;-82
2023/06/26 09:04:41;;;;;;;4.00;3.50;;;;;;;24.77;46.73;100020.13;131135;1254;107555;-81
2023/06/26 09:07:47;;;;;;;4.80;3.50;;;;;;;24.66;46.79;100021.26;131106;1251;107223;-82
2023/06/26 09:10:52;;;;;;;4.20;3.80;;;;;;;24.64;47.40;100021.81;131136;1254;107558;-81
2023/06/26 09:13:58;;;;;;;4.10;3.70;;;;;;;24.61;46.38;100017.52;131039;1254;107545;-81
2023/06/26 09:17:04;;;;;;;3.80;3.20;;;;;;;24.76;46.45;100013.13;131219;1251;107551;-81
2023/06/26 09:20:12;;;;;;;4.90;3.30;;;;;;;25.01;47.09;100002.85;131339;1254;107469;-81
2023/06/26 09:23:17;;;;;;;5.70;3.80;;;;;;;25.27;46.37;100003.05;131128;1267;107449;-81
2023/06/26 09:26:23;;;;;;;4.00;3.40;;;;;;;25.43;42.73;100002.52;131170;1254;107359;-81
2023/06/26 09:29:29;;;;;;;4.10;3.30;;;;;;;25.63;42.57;100003.98;131161;1251;107471;-82
2023/06/26 09:32:37;;;;;;;3.50;3.20;;;;;;;25.85;43.50;100003.13;131120;1253;107229;-81
2023/06/26 09:35:43;;;;;;;3.50;3.20;;;;;;;25.82;42.63;100001.84;131063;1254;107444;-81
2023/06/26 09:38:49;;;;;;;6.00;3.40;;;;;;;25.72;44.40;100005.53;131076;1254;107368;-81
2023/06/26 09:41:56;;;;;;;4.90;3.50;;;;;;;25.81;44.46;100004.13;130983;1251;107231;-81
2023/06/26 09:45:02;;;;;;;3.60;3.30;;;;;;;26.09;44.07;100000.49;131060;1254;107114;-82
2023/06/26 09:48:09;;;;;;;3.60;3.30;;;;;;;26.30;43.32;99999.71;131155;1251;108697;-82
2023/06/26 09:51:17;;;;;;;4.70;3.40;;;;;;;26.47;44.14;99993.53;131042;1257;107542;-81
2023/06/26 09:54:25;;;;;;;3.60;3.20;;;;;;;26.63;42.56;99992.48;131090;1264;107515;-81
2023/06/26 09:57:30;;;;;;;4.40;3.10;;;;;;;26.72;43.83;99987.23;131110;1251;107492;-81
2023/06/26 10:00:36;;;;;;;3.20;2.90;;;;;;;26.81;43.36;99985.17;131294;1254;107390;-82
2023/06/26 10:03:41;;;;;;;3.70;3.20;;;;;;;26.83;41.83;99985.58;131157;1251;108664;-81
2023/06/26 10:06:50;;;;;;;3.30;2.90;;;;;;;26.82;42.10;99982.73;131141;1257;107395;-81
2023/06/26 10:09:58;;;;;;;3.50;3.20;;;;;;;26.88;41.21;99983.95;131203;1254;107659;-82
2023/06/26 10:13:12;;;;;;;3.10;2.80;;;;;;;26.73;38.82;99986.52;131051;1254;107496;-82
2023/06/26 10:16:24;;;;;;;3.40;3.00;;;;;;;26.59;39.24;99978.98;131048;1254;107387;-81
2023/06/26 10:19:32;;;;;;;3.30;2.70;;;;;;;26.60;41.18;99975.28;131156;1251;107229;-81
2023/06/26 10:22:42;;;;;;;4.30;2.70;;;;;;;26.69;40.72;99974.23;131306;1254;107450;-81
2023/06/26 10:25:52;;;;;;;3.10;2.70;;;;;;;26.74;39.41;99974.10;131282;1254;108692;-81
2023/06/26 10:28:59;;;;;;;3.20;2.90;;;;;;;26.67;39.55;99970.29;131270;1251;109262;-81
2023/06/26 10:32:07;;;;;;;6.70;5.40;;;;;;;26.58;39.36;99971.83;131094;1257;108658;-81
2023/06/26 10:35:13;;;;;;;4.70;3.90;;;;;;;26.53;38.43;99967.83;131102;1254;107184;-82
2023/06/26 10:38:20;;;;;;;4.70;3.20;;;;;;;26.55;39.04;99959.54;131111;1264;107677;-81
2023/06/26 10:41:26;;;;;;;3.70;3.00;;;;;;;26.71;39.14;99958.81;131051;1254;107388;-81
2023/06/26 10:44:43;;;;;;;3.50;3.20;;;;;;;26.81;38.35;99953.11;131053;1254;107332;-81
2023/06/26 10:47:53;;;;;;;3.40;2.80;;;;;;;26.95;38.44;99951.40;131101;1254;108049;-81
2023/06/26 10:50:59;;;;;;;3.60;2.90;;;;;;;26.99;37.46;99947.70;131048;1254;107500;-81
2023/06/26 10:54:04;;;;;;;3.20;2.90;;;;;;;27.00;38.84;99944.52;131012;1254;107432;-81
2023/06/26 10:57:10;;;;;;;3.70;3.10;;;;;;;27.07;37.22;99947.64;131051;1251;108519;-80
2023/06/26 11:00:18;;;;;;;3.10;2.80;;;;;;;27.04;37.09;99943.54;131306;1254;108026;-81
2023/06/26 11:03:30;;;;;;;2.80;2.60;;;;;;;27.03;37.12;99944.95;131421;1256;107516;-81
2023/06/26 11:06:39;;;;;;;4.00;2.80;;;;;;;27.11;38.02;99941.25;131191;1253;107524;-81
2023/06/26 11:09:57;;;;;;;3.40;2.90;;;;;;;27.26;38.91;99932.36;131178;1254;107494;-81
2023/06/26 11:13:06;;;;;;;3.00;2.70;;;;;;;27.47;38.43;99928.95;131096;1256;106874;-81
2023/06/26 11:16:14;;;;;;;2.90;2.60;;;;;;;27.57;38.12;99924.73;131144;1254;107671;-81
2023/06/26 11:19:21;;;;;;;3.20;2.80;;;;;;;27.62;35.98;99927.69;131081;1255;107559;-81
2023/06/26 11:22:27;;;;;;;3.30;2.50;;;;;;;27.60;36.51;99932.85;131237;1254;107518;-81
2023/06/26 11:25:36;;;;;;;3.20;2.40;;;;;;;27.68;37.45;99920.61;131187;1251;107274;-79
2023/06/26 11:28:48;;;;;;;2.90;2.60;;;;;;;27.74;35.94;99922.14;130981;1254;107456;-80
2023/06/26 11:32:01;;;;;;;3.10;2.80;;;;;;;27.70;36.48;99920.11;131180;1253;107565;-78
2023/06/26 11:35:09;;;;;;;3.30;3.00;;;;;;;27.63;35.52;99924.06;131253;1254;108618;-79
2023/06/26 11:38:15;;;;;;;3.30;2.80;;;;;;;27.50;35.78;99923.47;131100;1250;108726;-79
2023/06/26 11:41:21;;;;;;;3.60;3.20;;;;;;;27.45;37.01;99915.69;131142;1253;107437;-79
2023/06/26 11:44:30;;;;;;;3.20;2.90;;;;;;;27.52;36.89;99910.32;131156;1255;106665;-79
2023/06/26 11:47:35;;;;;;;3.20;2.70;;;;;;;27.54;36.06;99909.39;131021;1250;107603;-79
2023/06/26 11:50:41;;;;;;;3.20;2.90;;;;;;;27.46;36.28;99911.52;131094;1255;107385;-80
2023/06/26 11:53:48;;;;;;;3.20;2.90;;;;;;;27.31;36.13;99909.14;131126;1254;107549;-80
2023/06/26 11:56:58;;;;;;;3.20;2.90;;;;;;;27.19;36.52;99903.36;131336;1250;107619;-79
2023/06/26 12:00:16;;;;;;;3.20;2.90;;;;;;;27.24;36.76;99899.54;131193;1251;107454;-79
2023/06/26 12:03:21;;;;;;;3.10;2.80;;;;;;;27.38;36.89;99893.00;131405;1254;108033;-79
2023/06/26 12:06:27;;;;;;;2.60;2.40;;;;;;;27.52;36.60;99890.58;131405;1253;107564;-80
2023/06/26 12:09:34;;;;;;;3.30;2.70;;;;;;;27.57;35.86;99886.96;131150;1254;107513;-79
2023/06/26 12:12:41;;;;;;;4.70;3.10;;;;;;;27.56;36.04;99885.59;131434;1253;106096;-82
2023/06/26 12:15:46;;;;;;;4.20;2.70;;;;;;;27.49;35.20;99880.45;131433;1253;107483;-82
2023/06/26 12:18:58;;;;;;;3.20;2.90;;;;;;;27.45;34.76;99879.58;131373;1251;105767;-82
2023/06/26 12:22:08;;;;;;;3.00;2.60;;;;;;;27.41;34.14;99885.00;131386;1250;107979;-81
2023/06/26 12:25:14;;;;;;;3.00;2.70;;;;;;;27.48;35.20;99879.80;131292;1254;107957;-81
2023/06/26 12:28:20;;;;;;;4.40;2.60;;;;;;;27.69;35.38;99873.64;131141;1251;107433;-80
2023/06/26 12:31:26;;;;;;;2.70;2.50;;;;;;;27.86;35.94;99876.79;131137;1253;106890;-80
2023/06/26 12:34:34;;;;;;;4.20;2.50;;;;;;;28.00;34.72;99878.09;131400;1251;107512;-82
2023/06/26 12:37:42;;;;;;;2.90;2.60;;;;;;;28.04;33.92;99874.02;131037;1249;107474;-81
2023/06/26 12:40:50;;;;;;;2.60;2.40;;;;;;;28.09;35.18;99869.68;131332;1253;108003;-81
2023/06/26 12:43:59;;;;;;;2.80;2.60;;;;;;;28.21;35.23;99862.61;131144;1251;107522;-82
2023/06/26 12:47:06;;;;;;;2.90;2.70;;;;;;;28.23;33.50;99868.48;131265;1251;107249;-80
2023/06/26 12:50:12;;;;;;;2.50;2.30;;;;;;;28.16;34.69;99866.85;131414;1251;108630;-80
2023/06/26 12:53:18;;;;;;;2.70;2.50;;;;;;;28.21;33.99;99860.26;131272;1251;107218;-80
2023/06/26 12:56:24;;;;;;;2.70;2.30;;;;;;;28.19;34.75;99855.98;131129;1253;107381;-80
2023/06/26 12:59:29;;;;;;;2.80;2.60;;;;;;;28.25;35.08;99846.86;131310;1254;107517;-80
2023/06/26 13:02:35;;;;;;;8.50;3.30;;;;;;;28.26;35.27;99842.57;131256;1251;107527;-80
2023/06/26 13:05:40;;;;;;;3.20;2.90;;;;;;;28.20;34.83;99845.89;131281;1251;107596;-81
2023/06/26 13:08:49;;;;;;;3.00;2.70;;;;;;;27.97;33.75;99845.41;131112;1258;107218;-81
2023/06/26 13:11:55;;;;;;;3.10;2.50;;;;;;;27.71;34.70;99845.39;131122;1254;106691;-81
2023/06/26 13:15:00;;;;;;;3.90;2.80;;;;;;;27.80;34.84;99841.31;131104;1253;107590;-81
2023/06/26 13:18:06;;;;;;;2.60;2.40;;;;;;;27.89;33.66;99840.55;131284;1251;107498;-82
2023/06/26 13:21:12;;;;;;;3.40;2.90;;;;;;;27.92;34.37;99832.20;131408;1253;107602;-81
2023/06/26 13:24:17;;;;;;;2.70;2.50;;;;;;;27.95;34.21;99828.75;131381;1253;107469;-81
2023/06/26 13:27:23;;;;;;;3.00;2.70;;;;;;;27.99;34.74;99826.16;131372;1253;107562;-82
2023/06/26 13:30:29;;;;;;;2.90;2.60;;;;;;;28.06;34.29;99825.92;131377;1251;108012;-80
2023/06/26 13:33:35;;;;;;;3.40;2.60;;;;;;;28.08;34.84;99820.16;131439;1253;107373;-81
2023/06/26 13:36:40;;;;;;;2.80;2.40;;;;;;;28.15;34.59;99814.14;131280;1253;107688;-81
2023/06/26 13:39:49;;;;;;;2.90;2.60;;;;;;;28.15;34.24;99812.50;131374;1253;107616;-81
2023/06/26 13:42:55;;;;;;;3.00;2.50;;;;;;;28.13;34.37;99807.57;131327;1253;109134;-81
2023/06/26 13:46:01;;;;;;;2.70;2.50;;;;;;;28.18;34.85;99806.84;131385;1253;107602;-81
2023/06/26 13:49:06;;;;;;;2.70;2.50;;;;;;;28.24;34.81;99804.06;131403;1263;107511;-81
2023/06/26 13:52:12;;;;;;;3.00;2.70;;;;;;;28.24;34.61;99801.21;131404;1251;107378;-81
2023/06/26 13:55:18;;;;;;;3.00;2.70;;;;;;;28.19;33.89;99798.05;131385;1251;108018;-81
2023/06/26 13:58:26;;;;;;;3.40;2.60;;;;;;;28.07;34.08;99790.80;131370;1252;107520;-81
2023/06/26 14:01:32;;;;;;;3.50;2.90;;;;;;;28.03;34.25;99797.45;131328;1253;108679;-81
2023/06/26 14:04:38;;;;;;;2.60;2.40;;;;;;;28.00;34.02;99790.67;131303;1253;107365;-81
2023/06/26 14:07:43;;;;;;;3.10;2.80;;;;;;;28.04;34.06;99787.64;131065;1251;135291;-81
2023/06/26 14:10:49;;;;;;;3.80;2.60;;;;;;;28.04;34.00;99784.67;131138;1253;107536;-81
2023/06/26 14:13:57;;;;;;;3.10;2.80;;;;;;;27.93;34.26;99780.45;130981;1255;107673;-84
2023/06/26 14:17:05;;;;;;;3.30;2.90;;;;;;;27.77;34.60;99783.27;131159;1254;107334;-79